createdAt,value
2018-09-28T00:01:55.589Z,9.11
2018-09-28T00:04:25.147Z,9.14
2018-09-28T00:06:54.039Z,9.09
2018-09-28T00:09:22.935Z,9.04
2018-09-28T00:11:51.835Z,8.89
2018-09-28T00:14:20.724Z,8.90
2018-09-28T00:16:49.650Z,8.89
2018-09-28T00:19:18.551Z,8.89
2018-09-28T00:21:47.491Z,8.80
2018-09-28T00:24:16.923Z,8.75
2018-09-28T00:26:45.834Z,8.70
2018-09-28T00:29:14.739Z,8.66
2018-09-28T00:31:44.334Z,8.65
2018-09-28T00:34:13.291Z,8.65
2018-09-28T00:36:42.233Z,8.68
2018-09-28T00:39:11.204Z,8.75
2018-09-28T00:41:42.799Z,8.78
2018-09-28T00:44:12.702Z,8.79
2018-09-28T00:46:41.591Z,8.79
2018-09-28T00:49:10.552Z,8.79
2018-09-28T00:51:39.614Z,8.80
2018-09-28T00:54:08.549Z,8.82
2018-09-28T00:56:37.490Z,8.83
2018-09-28T00:59:06.453Z,8.82
2018-09-28T01:01:35.402Z,8.77
2018-09-28T01:04:04.307Z,8.78
2018-09-28T01:06:33.205Z,8.78
2018-09-28T01:09:02.089Z,8.82
2018-09-28T01:11:31.058Z,8.86
2018-09-28T01:14:00.031Z,8.81
2018-09-28T01:16:33.226Z,8.65
2018-09-28T01:19:02.134Z,8.80
2018-09-28T01:21:31.019Z,8.83
2018-09-28T01:24:00.734Z,8.84
2018-09-28T01:26:30.527Z,8.82
2018-09-28T01:28:59.483Z,8.82
2018-09-28T01:31:28.483Z,8.69
2018-09-28T01:33:57.409Z,8.64
2018-09-28T01:36:26.314Z,8.53
2018-09-28T01:38:55.343Z,8.48
2018-09-28T01:41:24.264Z,8.50
2018-09-28T01:43:53.176Z,8.57
2018-09-28T01:46:22.117Z,8.64
2018-09-28T01:48:51.047Z,8.64
2018-09-28T01:51:21.178Z,8.64
2018-09-28T01:53:50.176Z,8.64
2018-09-28T01:56:19.073Z,8.61
2018-09-28T01:58:48.907Z,8.57
2018-09-28T02:01:17.865Z,8.55
2018-09-28T02:03:46.785Z,8.47
2018-09-28T02:06:15.673Z,8.44
2018-09-28T02:08:44.618Z,8.41
2018-09-28T02:11:13.499Z,8.36
2018-09-28T02:13:42.444Z,8.29
2018-09-28T02:16:11.322Z,8.24
2018-09-28T02:18:40.221Z,8.16
2018-09-28T02:21:09.103Z,8.11
2018-09-28T02:23:38.348Z,8.09
2018-09-28T02:26:07.323Z,8.10
2018-09-28T02:28:36.199Z,8.17
2018-09-28T02:31:05.195Z,8.18
2018-09-28T02:33:34.486Z,8.19
2018-09-28T02:36:03.367Z,8.14
2018-09-28T02:38:32.255Z,8.08
2018-09-28T02:41:01.949Z,8.04
2018-09-28T02:43:30.842Z,8.05
2018-09-28T02:45:59.838Z,8.04
2018-09-28T02:48:28.731Z,8.07
2018-09-28T02:50:57.615Z,8.04
2018-09-28T02:53:26.561Z,7.99
2018-09-28T02:55:55.476Z,8.11
2018-09-28T02:58:24.435Z,8.18
2018-09-28T03:00:53.352Z,8.13
2018-09-28T03:03:22.396Z,8.12
2018-09-28T03:05:52.694Z,8.08
2018-09-28T03:08:22.511Z,7.99
2018-09-28T03:10:52.041Z,7.93
2018-09-28T03:13:21.900Z,7.89
2018-09-28T03:15:50.831Z,7.88
2018-09-28T03:18:19.984Z,8.08
2018-09-28T03:20:49.062Z,8.48
2018-09-28T03:23:17.955Z,8.65
2018-09-28T03:25:47.024Z,8.51
2018-09-28T03:28:15.926Z,8.36
2018-09-28T03:30:44.825Z,8.23
2018-09-28T03:33:13.717Z,8.14
2018-09-28T03:35:42.671Z,8.04
2018-09-28T03:38:11.639Z,8.00
2018-09-28T03:40:42.213Z,7.93
2018-09-28T03:43:11.164Z,7.88
2018-09-28T03:45:40.063Z,7.88
2018-09-28T03:48:08.940Z,7.91
2018-09-28T03:50:39.142Z,7.93
2018-09-28T03:53:08.126Z,7.96
2018-09-28T03:55:37.083Z,8.03
2018-09-28T03:58:06.017Z,7.93
2018-09-28T04:00:34.920Z,7.93
2018-09-28T04:03:03.906Z,7.89
2018-09-28T04:05:32.807Z,7.81
2018-09-28T04:08:01.727Z,7.80
2018-09-28T04:10:30.666Z,7.77
2018-09-28T04:12:59.712Z,7.78
2018-09-28T04:15:28.596Z,7.76
2018-09-28T04:17:57.518Z,7.78
2018-09-28T04:20:26.458Z,7.85
2018-09-28T04:22:55.358Z,7.88
2018-09-28T04:25:24.295Z,7.96
2018-09-28T04:27:53.203Z,7.94
2018-09-28T04:30:22.181Z,7.90
2018-09-28T04:32:51.077Z,7.90
2018-09-28T04:35:19.981Z,7.93
2018-09-28T04:37:48.918Z,7.96
2018-09-28T04:40:17.859Z,7.96
2018-09-28T04:42:46.759Z,8.00
2018-09-28T04:45:15.731Z,8.07
2018-09-28T04:47:44.663Z,8.13
2018-09-28T04:50:13.595Z,8.23
2018-09-28T04:52:42.555Z,8.29
2018-09-28T04:55:11.512Z,8.31
2018-09-28T04:57:40.412Z,8.39
2018-09-28T05:00:09.901Z,8.47
2018-09-28T05:02:38.795Z,8.58
2018-09-28T05:05:07.879Z,8.64
2018-09-28T05:07:36.797Z,8.72
2018-09-28T05:10:05.859Z,8.79
2018-09-28T05:12:34.779Z,8.88
2018-09-28T05:15:03.775Z,8.91
2018-09-28T05:17:32.759Z,8.97
2018-09-28T05:20:01.643Z,9.04
2018-09-28T05:22:31.531Z,9.07
2018-09-28T05:25:00.438Z,9.17
2018-09-28T05:27:29.340Z,9.32
2018-09-28T05:29:58.264Z,9.34
2018-09-28T05:32:27.350Z,8.89
2018-09-28T05:34:56.167Z,8.54
2018-09-28T05:37:25.171Z,8.76
2018-09-28T05:39:54.054Z,9.05
2018-09-28T05:42:22.946Z,9.14
2018-09-28T05:44:51.890Z,9.35
2018-09-28T05:47:20.842Z,9.33
2018-09-28T05:49:49.824Z,9.39
2018-09-28T05:52:18.764Z,9.38
2018-09-28T05:54:47.683Z,9.09
2018-09-28T05:57:16.733Z,9.04
2018-09-28T05:59:50.806Z,9.16
2018-09-28T06:02:24.760Z,9.10
2018-09-28T06:04:58.902Z,9.19
2018-09-28T06:07:27.803Z,9.30
2018-09-28T06:09:56.759Z,9.42
2018-09-28T06:12:25.652Z,9.50
2018-09-28T06:14:54.595Z,9.10
2018-09-28T06:17:23.519Z,9.37
2018-09-28T06:19:52.437Z,9.63
2018-09-28T06:22:21.373Z,9.71
2018-09-28T06:24:50.284Z,9.71
2018-09-28T06:27:19.183Z,9.93
2018-09-28T06:29:48.166Z,9.84
2018-09-28T06:32:17.127Z,10.01
2018-09-28T06:34:46.035Z,10.19
2018-09-28T06:37:14.967Z,10.36
2018-09-28T06:39:43.885Z,10.55
2018-09-28T06:42:12.819Z,10.69
2018-09-28T06:44:42.335Z,10.72
2018-09-28T06:47:11.242Z,10.80
2018-09-28T06:49:40.175Z,10.89
2018-09-28T06:52:09.132Z,11.02
2018-09-28T06:54:38.096Z,11.16
2018-09-28T06:57:07.001Z,11.30
2018-09-28T06:59:35.958Z,11.29
2018-09-28T07:02:04.992Z,11.33
2018-09-28T07:04:33.902Z,11.38
2018-09-28T07:07:02.850Z,11.39
2018-09-28T07:09:31.765Z,11.53
2018-09-28T07:12:00.696Z,11.54
2018-09-28T07:14:29.622Z,11.69
2018-09-28T07:16:58.607Z,11.83
2018-09-28T07:19:27.562Z,11.94
2018-09-28T07:21:56.500Z,11.94
2018-09-28T07:24:26.241Z,12.08
2018-09-28T07:26:55.163Z,12.19
2018-09-28T07:29:24.987Z,12.17
2018-09-28T07:31:54.275Z,12.09
2018-09-28T07:34:23.194Z,12.24
2018-09-28T07:36:52.158Z,12.35
2018-09-28T07:39:21.068Z,12.28
2018-09-28T07:41:50.005Z,12.36
2018-09-28T07:44:18.935Z,12.52
2018-09-28T07:46:47.868Z,12.58
2018-09-28T07:49:16.823Z,12.65
2018-09-28T07:51:45.774Z,12.80
2018-09-28T07:54:14.711Z,12.90
2018-09-28T07:56:43.649Z,12.99
2018-09-28T07:59:12.547Z,13.04
2018-09-28T08:01:41.489Z,13.00
2018-09-28T08:04:10.408Z,13.13
2018-09-28T08:06:39.351Z,13.24
2018-09-28T08:09:09.719Z,13.34
2018-09-28T08:11:38.628Z,13.38
2018-09-28T08:14:08.069Z,13.40
2018-09-28T08:16:37.219Z,13.49
2018-09-28T08:19:06.259Z,13.62
2018-09-28T08:21:35.191Z,13.69
2018-09-28T08:24:04.188Z,13.86
2018-09-28T08:26:33.083Z,13.95
2018-09-28T08:29:02.002Z,14.04
2018-09-28T08:31:30.927Z,14.16
2018-09-28T08:33:59.831Z,14.26
2018-09-28T08:36:28.759Z,14.28
2018-09-28T08:38:57.684Z,14.40
2018-09-28T08:41:26.652Z,14.51
2018-09-28T08:43:55.567Z,14.58
2018-09-28T08:46:24.460Z,14.67
2018-09-28T08:48:53.370Z,14.69
2018-09-28T08:51:22.298Z,14.75
2018-09-28T08:53:51.307Z,14.71
2018-09-28T08:56:20.200Z,14.86
2018-09-28T08:58:49.111Z,14.93
2018-09-28T09:01:18.039Z,14.96
2018-09-28T09:03:47.015Z,15.03
2018-09-28T09:06:15.918Z,15.11
2018-09-28T09:08:44.912Z,15.22
2018-09-28T09:11:13.806Z,15.29
2018-09-28T09:13:42.743Z,15.32
2018-09-28T09:16:11.675Z,15.38
2018-09-28T09:18:40.663Z,15.47
2018-09-28T09:21:09.600Z,15.58
2018-09-28T09:23:38.507Z,15.68
2018-09-28T09:26:07.480Z,15.72
2018-09-28T09:28:36.380Z,15.72
2018-09-28T09:31:05.375Z,15.78
2018-09-28T09:33:34.307Z,15.78
2018-09-28T09:36:03.241Z,15.77
2018-09-28T09:38:32.152Z,15.85
2018-09-28T09:41:01.084Z,15.86
2018-09-28T09:43:30.009Z,15.90
2018-09-28T09:45:58.900Z,15.95
2018-09-28T09:48:27.862Z,15.94
2018-09-28T09:50:56.741Z,16.02
2018-09-28T09:53:25.863Z,16.13
2018-09-28T09:55:54.796Z,16.16
2018-09-28T09:58:23.709Z,16.16
2018-09-28T10:00:57.650Z,16.14
2018-09-28T10:03:31.594Z,16.22
2018-09-28T10:06:00.516Z,16.36
2018-09-28T10:08:29.440Z,16.33
2018-09-28T10:10:58.363Z,16.40
2018-09-28T10:13:27.302Z,16.36
2018-09-28T10:15:56.191Z,16.36
2018-09-28T10:18:25.075Z,16.53
2018-09-28T10:20:54.027Z,16.54
2018-09-28T10:23:22.968Z,16.61
2018-09-28T10:25:51.954Z,16.68
2018-09-28T10:28:21.085Z,16.69
2018-09-28T10:30:50.219Z,16.70
2018-09-28T10:33:19.159Z,16.74
2018-09-28T10:35:48.084Z,16.75
2018-09-28T10:38:16.990Z,16.82
2018-09-28T10:40:45.996Z,16.80
2018-09-28T10:43:14.854Z,16.83
2018-09-28T10:45:43.790Z,16.86
2018-09-28T10:48:12.721Z,16.96
2018-09-28T10:50:41.687Z,16.94
2018-09-28T10:53:11.153Z,17.00
2018-09-28T10:55:40.095Z,16.96
2018-09-28T10:58:09.144Z,17.04
2018-09-28T11:00:38.077Z,17.03
2018-09-28T11:03:07.074Z,17.06
2018-09-28T11:05:36.044Z,17.07
2018-09-28T11:08:04.981Z,17.11
2018-09-28T11:10:33.934Z,17.16
2018-09-28T11:13:02.840Z,17.32
2018-09-28T11:15:31.783Z,17.28
2018-09-28T11:18:00.761Z,17.30
2018-09-28T11:20:30.314Z,17.35
2018-09-28T11:22:59.250Z,17.48
2018-09-28T11:25:28.189Z,17.54
2018-09-28T11:27:57.195Z,17.60
2018-09-28T11:30:26.096Z,17.56
2018-09-28T11:32:55.030Z,17.50
2018-09-28T11:35:23.933Z,17.53
2018-09-28T11:37:52.981Z,17.68
2018-09-28T11:40:21.918Z,17.63
2018-09-28T11:42:50.913Z,17.64
2018-09-28T11:45:19.984Z,17.72
2018-09-28T11:47:48.822Z,17.84
2018-09-28T11:50:17.717Z,17.75
2018-09-28T11:52:46.646Z,17.75
2018-09-28T11:55:15.621Z,17.96
2018-09-28T11:57:44.611Z,17.98
2018-09-28T12:00:13.595Z,17.96
2018-09-28T12:02:42.504Z,17.95
2018-09-28T12:05:11.460Z,18.05
2018-09-28T12:07:40.409Z,17.99
2018-09-28T12:10:09.371Z,17.99
2018-09-28T12:12:38.427Z,17.97
2018-09-28T12:15:07.412Z,18.08
2018-09-28T12:17:36.289Z,18.07
2018-09-28T12:20:06.404Z,18.11
2018-09-28T12:22:35.345Z,18.18
2018-09-28T12:25:04.402Z,18.28
2018-09-28T12:27:33.384Z,18.27
2018-09-28T12:30:02.255Z,18.27
2018-09-28T12:32:31.171Z,18.36
2018-09-28T12:35:00.137Z,18.44
2018-09-28T12:37:29.085Z,18.39
2018-09-28T12:39:58.721Z,18.47
2018-09-28T12:42:28.294Z,18.51
2018-09-28T12:44:57.344Z,18.55
2018-09-28T12:47:26.272Z,18.52
2018-09-28T12:49:55.181Z,18.60
2018-09-28T12:52:24.071Z,18.59
2018-09-28T12:54:53.098Z,18.52
2018-09-28T12:57:21.986Z,18.54
2018-09-28T12:59:50.987Z,18.62
2018-09-28T13:02:19.941Z,18.65
2018-09-28T13:04:48.806Z,18.67
2018-09-28T13:07:17.690Z,18.77
2018-09-28T13:09:46.608Z,18.78
2018-09-28T13:12:15.548Z,18.80
2018-09-28T13:14:44.511Z,18.70
2018-09-28T13:17:13.421Z,18.77
2018-09-28T13:19:42.371Z,18.80
2018-09-28T13:22:11.284Z,18.76
2018-09-28T13:24:40.206Z,18.75
2018-09-28T13:27:09.156Z,18.73
2018-09-28T13:29:38.027Z,18.83
2018-09-28T13:32:06.975Z,18.93
2018-09-28T13:34:35.911Z,18.94
2018-09-28T13:37:04.836Z,18.97
2018-09-28T13:39:33.723Z,18.94
2018-09-28T13:42:02.632Z,18.96
2018-09-28T13:44:31.578Z,19.04
2018-09-28T13:47:00.502Z,19.10
2018-09-28T13:49:29.397Z,19.08
2018-09-28T13:51:58.459Z,18.99
2018-09-28T13:54:27.477Z,18.95
2018-09-28T13:56:56.371Z,19.01
2018-09-28T13:59:25.300Z,19.07
2018-09-28T14:01:54.253Z,19.06
2018-09-28T14:04:23.195Z,18.98
2018-09-28T14:06:52.478Z,19.08
2018-09-28T14:09:21.416Z,18.99
2018-09-28T14:11:50.306Z,19.01
2018-09-28T14:14:19.275Z,18.97
2018-09-28T14:16:48.356Z,19.04
2018-09-28T14:19:17.118Z,19.08
2018-09-28T14:21:46.023Z,19.02
2018-09-28T14:24:14.943Z,19.08
2018-09-28T14:26:44.006Z,19.13
2018-09-28T14:29:13.150Z,19.12
2018-09-28T14:31:42.050Z,19.11
2018-09-28T14:34:11.284Z,19.20
2018-09-28T14:36:40.202Z,19.13
2018-09-28T14:39:09.919Z,19.02
2018-09-28T14:41:38.885Z,19.12
2018-09-28T14:44:08.442Z,19.06
2018-09-28T14:46:37.437Z,19.10
2018-09-28T14:49:06.537Z,18.98
2018-09-28T14:51:35.384Z,19.07
2018-09-28T14:54:04.357Z,19.08
2018-09-28T14:56:33.331Z,19.08
2018-09-28T14:59:02.283Z,18.88
2018-09-28T15:01:31.428Z,18.94
2018-09-28T15:04:00.136Z,18.93
2018-09-28T15:06:29.169Z,18.87
2018-09-28T15:08:58.411Z,18.82
2018-09-28T15:11:27.423Z,18.82
2018-09-28T15:13:56.345Z,18.81
2018-09-28T15:16:25.352Z,18.68
2018-09-28T15:18:54.269Z,18.64
2018-09-28T15:21:23.263Z,18.57
2018-09-28T15:23:52.229Z,18.55
2018-09-28T15:26:21.115Z,18.49
2018-09-28T15:28:50.101Z,18.46
2018-09-28T15:31:23.439Z,18.45
2018-09-28T15:33:52.968Z,18.39
2018-09-28T15:36:22.895Z,18.35
2018-09-28T15:38:51.820Z,18.46
2018-09-28T15:41:20.794Z,18.33
2018-09-28T15:43:50.267Z,18.28
2018-09-28T15:46:19.210Z,18.22
2018-09-28T15:48:48.166Z,18.21
2018-09-28T15:51:17.080Z,18.12
2018-09-28T15:53:46.626Z,18.05
2018-09-28T15:56:15.646Z,18.00
2018-09-28T15:58:44.606Z,18.02
2018-09-28T16:01:13.647Z,17.85
2018-09-28T16:03:44.570Z,17.81
2018-09-28T16:06:16.834Z,17.86
2018-09-28T16:08:45.930Z,17.73
2018-09-28T16:11:16.250Z,17.72
2018-09-28T16:13:45.290Z,17.92
2018-09-28T16:16:15.614Z,17.77
2018-09-28T16:18:44.687Z,17.80
2018-09-28T16:21:13.710Z,17.62
2018-09-28T16:23:43.585Z,17.57
2018-09-28T16:26:12.536Z,17.48
2018-09-28T16:28:41.506Z,17.43
2018-09-28T16:31:10.479Z,17.40
2018-09-28T16:33:39.438Z,17.27
2018-09-28T16:36:08.492Z,17.30
2018-09-28T16:38:37.656Z,17.30
2018-09-28T16:41:06.711Z,17.17
2018-09-28T16:43:35.656Z,17.14
2018-09-28T16:46:04.595Z,17.11
2018-09-28T16:48:33.577Z,17.11
2018-09-28T16:51:02.578Z,17.11
2018-09-28T16:53:31.562Z,17.04
2018-09-28T16:56:00.508Z,17.03
2018-09-28T16:58:29.479Z,16.99
2018-09-28T17:00:58.417Z,16.97
2018-09-28T17:03:28.239Z,16.90
2018-09-28T17:05:57.176Z,16.96
2018-09-28T17:08:26.128Z,16.95
2018-09-28T17:10:55.101Z,16.82
2018-09-28T17:13:24.087Z,17.00
2018-09-28T17:15:52.991Z,16.97
2018-09-28T17:18:22.752Z,16.94
2018-09-28T17:20:51.686Z,16.97
2018-09-28T17:23:21.271Z,16.86
2018-09-28T17:25:50.254Z,16.79
2018-09-28T17:28:19.197Z,16.80
2018-09-28T17:30:48.154Z,16.76
2018-09-28T17:33:17.159Z,16.76
2018-09-28T17:35:46.143Z,16.69
2018-09-28T17:38:15.091Z,16.57
2018-09-28T17:40:44.031Z,16.51
2018-09-28T17:43:13.006Z,16.37
2018-09-28T17:45:41.967Z,16.17
2018-09-28T17:48:11.028Z,16.17
2018-09-28T17:50:39.987Z,15.98
2018-09-28T17:53:09.182Z,15.97
2018-09-28T17:55:38.213Z,15.86
2018-09-28T17:58:07.279Z,15.89
2018-09-28T18:00:37.277Z,15.88
2018-09-28T18:03:06.365Z,15.83
2018-09-28T18:05:38.547Z,15.82
2018-09-28T18:08:07.840Z,15.89
2018-09-28T18:10:36.798Z,15.76
2018-09-28T18:13:05.784Z,15.70
2018-09-28T18:15:34.770Z,15.66
2018-09-28T18:18:03.810Z,15.59
2018-09-28T18:20:32.751Z,15.64
2018-09-28T18:23:01.860Z,15.65
2018-09-28T18:25:30.767Z,15.64
2018-09-28T18:27:59.749Z,15.68
2018-09-28T18:30:28.695Z,15.72
2018-09-28T18:32:57.807Z,15.76
2018-09-28T18:35:26.753Z,15.67
2018-09-28T18:37:55.667Z,15.62
2018-09-28T18:40:24.739Z,15.54
2018-09-28T18:42:53.674Z,15.54
2018-09-28T18:45:22.591Z,15.58
2018-09-28T18:47:51.505Z,15.61
2018-09-28T18:50:20.419Z,15.67
2018-09-28T18:52:49.372Z,15.68
2018-09-28T18:55:18.390Z,15.71
2018-09-28T18:57:47.391Z,15.65
2018-09-28T19:00:16.335Z,15.62
2018-09-28T19:02:45.339Z,15.61
2018-09-28T19:05:14.342Z,15.60
2018-09-28T19:07:43.314Z,15.61
2018-09-28T19:10:12.260Z,15.44
2018-09-28T19:12:41.243Z,15.49
2018-09-28T19:15:10.214Z,15.50
2018-09-28T19:17:39.183Z,15.51
2018-09-28T19:20:08.109Z,15.49
2018-09-28T19:22:37.044Z,15.46
2018-09-28T19:25:06.107Z,15.46
2018-09-28T19:27:35.063Z,15.49
2018-09-28T19:30:04.106Z,15.43
2018-09-28T19:32:33.015Z,15.37
2018-09-28T19:35:01.935Z,15.32
2018-09-28T19:37:30.903Z,15.26
2018-09-28T19:40:00.136Z,15.43
2018-09-28T19:42:29.065Z,15.38
2018-09-28T19:44:57.980Z,15.41
2018-09-28T19:47:26.968Z,15.40
2018-09-28T19:49:55.888Z,15.40
2018-09-28T19:52:24.792Z,15.32
2018-09-28T19:54:53.735Z,15.35
2018-09-28T19:57:22.624Z,15.32
2018-09-28T19:59:51.535Z,15.33
2018-09-28T20:02:20.460Z,15.34
2018-09-28T20:04:49.380Z,15.32
2018-09-28T20:07:18.326Z,15.29
2018-09-28T20:09:47.315Z,15.38
2018-09-28T20:12:16.243Z,15.34
2018-09-28T20:14:45.162Z,15.37
2018-09-28T20:17:14.084Z,15.29
2018-09-28T20:19:43.067Z,15.37
2018-09-28T20:22:13.472Z,15.34
2018-09-28T20:24:42.448Z,15.44
2018-09-28T20:27:11.360Z,15.43
2018-09-28T20:29:40.291Z,15.48
2018-09-28T20:32:09.273Z,15.48
2018-09-28T20:34:39.060Z,15.54
2018-09-28T20:37:07.987Z,15.51
2018-09-28T20:39:36.915Z,15.47
2018-09-28T20:42:05.820Z,15.37
2018-09-28T20:44:34.724Z,15.44
2018-09-28T20:47:03.628Z,15.42
2018-09-28T20:49:32.603Z,15.44
2018-09-28T20:52:01.513Z,15.44
2018-09-28T20:54:30.442Z,15.46
2018-09-28T20:56:59.355Z,15.44
2018-09-28T20:59:28.283Z,15.49
2018-09-28T21:01:57.211Z,15.49
2018-09-28T21:04:26.085Z,15.48
2018-09-28T21:06:55.011Z,15.46
2018-09-28T21:09:23.923Z,15.38
2018-09-28T21:11:52.841Z,15.37
2018-09-28T21:14:21.779Z,15.37
2018-09-28T21:16:50.683Z,15.23
2018-09-28T21:19:19.571Z,15.34
2018-09-28T21:21:48.463Z,15.33
2018-09-28T21:24:17.380Z,15.34
2018-09-28T21:26:46.272Z,15.33
2018-09-28T21:29:15.205Z,15.29
2018-09-28T21:31:44.107Z,15.26
2018-09-28T21:34:13.088Z,15.23
2018-09-28T21:36:42.008Z,15.17
2018-09-28T21:39:11.709Z,15.12
2018-09-28T21:41:40.675Z,15.10
2018-09-28T21:44:09.788Z,15.01
2018-09-28T21:46:38.740Z,14.93
2018-09-28T21:49:07.729Z,14.86
2018-09-28T21:51:36.736Z,14.73
2018-09-28T21:54:05.640Z,14.75
2018-09-28T21:56:34.563Z,14.73
2018-09-28T21:59:03.471Z,14.64
2018-09-28T22:01:32.429Z,14.59
2018-09-28T22:04:01.325Z,14.54
2018-09-28T22:06:30.214Z,14.51
2018-09-28T22:08:59.116Z,14.46
2018-09-28T22:11:28.016Z,14.43
2018-09-28T22:13:56.975Z,14.39
2018-09-28T22:16:25.857Z,14.31
2018-09-28T22:18:54.840Z,14.25
2018-09-28T22:21:23.772Z,14.21
2018-09-28T22:23:52.662Z,14.18
2018-09-28T22:26:21.571Z,14.16
2018-09-28T22:28:50.470Z,14.14
2018-09-28T22:31:19.367Z,14.10
2018-09-28T22:33:48.273Z,14.09
2018-09-28T22:36:17.245Z,14.03
2018-09-28T22:38:46.175Z,13.94
2018-09-28T22:41:15.131Z,14.00
2018-09-28T22:43:44.036Z,14.02
2018-09-28T22:46:12.932Z,13.98
2018-09-28T22:48:41.844Z,13.95
2018-09-28T22:51:10.818Z,13.92
2018-09-28T22:53:39.712Z,13.89
2018-09-28T22:56:08.626Z,13.85
2018-09-28T22:58:37.534Z,13.86
2018-09-28T23:01:06.599Z,13.85
2018-09-28T23:03:35.552Z,13.86
2018-09-28T23:06:04.548Z,13.85
2018-09-28T23:08:33.444Z,13.84
2018-09-28T23:11:02.353Z,13.85
2018-09-28T23:13:31.251Z,13.82
2018-09-28T23:16:00.169Z,13.80
2018-09-28T23:18:29.068Z,13.80
2018-09-28T23:20:58.015Z,13.81
2018-09-28T23:23:26.899Z,13.81
2018-09-28T23:25:55.775Z,13.82
2018-09-28T23:28:24.693Z,13.79
2018-09-28T23:30:53.645Z,13.81
2018-09-28T23:33:22.569Z,13.76
2018-09-28T23:35:51.500Z,13.71
2018-09-28T23:38:20.400Z,13.71
2018-09-28T23:40:49.355Z,13.68
2018-09-28T23:43:18.313Z,13.68
2018-09-28T23:45:47.227Z,13.60
2018-09-28T23:48:16.120Z,13.51
2018-09-28T23:50:45.036Z,13.47
2018-09-28T23:53:13.976Z,13.41
2018-09-28T23:55:42.892Z,13.39
2018-09-28T23:58:11.822Z,13.36
